Time;durP1;ratioP1;P1;durP2;ratioP2;P2;SDS_P1;SDS_P2;PMS_P1;PMS_P2;Temp;Humidity;BMP_temperature;BMP_pressure;BME280_temperature;BME280_humidity;BME280_pressure;Samples;Min_cycle;Max_cycle;Signal;HPM_P1;HPM_P2
2023/01/26 00:00:52;;;;;;;113.50;43.90;;;-0.70;99.90;;;;;;7336294;32;20100;-60
2023/01/26 00:04:54;;;;;;;101.25;41.53;;;-0.80;99.90;;;;;;7326326;32;20104;-60
2023/01/26 00:08:56;;;;;;;113.15;42.42;;;-0.70;99.90;;;;;;7341384;32;20452;-62
2023/01/26 00:12:58;;;;;;;106.10;43.22;;;-0.70;99.90;;;;;;7331460;32;20509;-60
2023/01/26 00:16:59;;;;;;;105.75;40.17;;;-0.80;99.90;;;;;;7334396;32;20308;-62
2023/01/26 00:21:02;;;;;;;106.47;40.53;;;-0.80;99.90;;;;;;7340619;32;20569;-62
2023/01/26 00:25:04;;;;;;;112.18;42.35;;;-0.80;99.90;;;;;;7334128;32;21144;-59
2023/01/26 00:29:06;;;;;;;110.70;42.17;;;-1.00;99.90;;;;;;7337422;32;20220;-61
2023/01/26 00:33:09;;;;;;;109.10;39.47;;;-0.90;99.90;;;;;;7335662;32;20602;-59
2023/01/26 00:37:10;;;;;;;105.37;38.67;;;-0.70;99.90;;;;;;7337698;32;20131;-59
2023/01/26 00:45:34;;;;;;;104.72;41.03;;;-0.80;99.90;;;;;;7331583;32;20125;-58
2023/01/26 00:49:36;;;;;;;107.82;40.28;;;-0.70;99.90;;;;;;7342129;32;20370;-63
2023/01/26 00:53:38;;;;;;;96.53;38.33;;;-0.70;99.90;;;;;;7342645;32;20186;-60
2023/01/26 00:57:40;;;;;;;101.05;38.40;;;-0.70;99.90;;;;;;7347312;32;20493;-59
2023/01/26 01:01:42;;;;;;;93.07;36.15;;;-0.60;99.90;;;;;;7336468;32;20197;-59
2023/01/26 01:05:43;;;;;;;93.70;37.65;;;-0.60;99.90;;;;;;7342889;32;20186;-59
2023/01/26 01:09:45;;;;;;;107.45;38.60;;;-0.60;99.90;;;;;;7341187;32;20127;-60
2023/01/26 01:13:47;;;;;;;110.75;39.33;;;-0.70;99.90;;;;;;7349723;32;20577;-59
2023/01/26 01:17:49;;;;;;;94.87;35.95;;;-0.70;99.90;;;;;;7344284;32;20103;-59
2023/01/26 01:21:51;;;;;;;98.12;38.42;;;-0.60;99.90;;;;;;7343416;32;20246;-59
2023/01/26 01:25:57;;;;;;;103.87;40.45;;;-0.60;99.90;;;;;;7329545;32;20263;-59
2023/01/26 01:29:59;;;;;;;111.77;38.70;;;-0.60;99.90;;;;;;7345922;32;20206;-59
2023/01/26 01:34:00;;;;;;;98.70;37.45;;;-0.70;99.90;;;;;;7331903;32;20222;-60
2023/01/26 01:38:02;;;;;;;104.57;37.70;;;-0.60;99.90;;;;;;7329764;32;20480;-59
2023/01/26 01:42:04;;;;;;;97.40;36.80;;;-0.70;99.90;;;;;;7345284;32;20249;-59
2023/01/26 01:46:40;;;;;;;97.82;36.40;;;-0.70;99.90;;;;;;7342163;32;20274;-60
2023/01/26 01:50:43;;;;;;;112.07;37.60;;;-0.80;99.90;;;;;;7341255;32;20504;-59
2023/01/26 01:55:07;;;;;;;89.65;34.35;;;-0.70;99.90;;;;;;7344242;32;20131;-59
2023/01/26 01:59:11;;;;;;;99.72;34.70;;;-0.80;99.90;;;;;;7341153;32;20706;-59
2023/01/26 02:03:14;;;;;;;94.22;36.13;;;-0.70;99.90;;;;;;7343548;32;20116;-59
2023/01/26 02:07:16;;;;;;;96.45;36.20;;;-0.70;99.90;;;;;;7344654;32;20135;-60
2023/01/26 02:11:43;;;;;;;91.90;35.58;;;-0.60;99.90;;;;;;7342986;32;20253;-59
2023/01/26 02:15:45;;;;;;;97.72;34.35;;;-0.60;99.90;;;;;;7343049;32;20119;-60
2023/01/26 02:19:57;;;;;;;92.45;34.65;;;-0.70;99.90;;;;;;7342142;32;20164;-60
2023/01/26 02:24:16;;;;;;;95.50;36.17;;;-0.60;99.90;;;;;;7345876;32;20220;-59
2023/01/26 02:28:21;;;;;;;96.65;37.80;;;-0.60;99.90;;;;;;7339347;32;20318;-60
2023/01/26 02:32:23;;;;;;;103.45;36.97;;;-0.60;99.90;;;;;;7336423;32;20127;-59
2023/01/26 02:36:30;;;;;;;93.62;36.20;;;-0.60;99.90;;;;;;7347028;32;20126;-59
2023/01/26 02:40:56;;;;;;;92.65;35.45;;;-0.50;99.90;;;;;;7343035;32;20203;-58
2023/01/26 02:44:58;;;;;;;94.87;35.97;;;-0.40;99.90;;;;;;7350787;32;20166;-59
2023/01/26 02:53:20;;;;;;;98.65;36.30;;;-0.50;99.90;;;;;;7338051;32;20177;-59
2023/01/26 02:57:22;;;;;;;90.95;34.20;;;-0.40;99.90;;;;;;7339510;32;20159;-60
2023/01/26 03:01:24;;;;;;;88.95;34.53;;;-0.40;99.90;;;;;;7341546;32;20125;-59
2023/01/26 03:05:27;;;;;;;91.60;35.88;;;-0.40;99.90;;;;;;7350525;32;20111;-62
2023/01/26 03:09:28;;;;;;;97.65;35.95;;;-0.40;99.90;;;;;;7328659;32;20104;-59
2023/01/26 03:13:30;;;;;;;94.97;34.20;;;-0.40;99.90;;;;;;7346965;32;20230;-60
2023/01/26 03:17:32;;;;;;;102.32;34.58;;;-0.40;99.90;;;;;;7330169;32;20510;-59
2023/01/26 03:30:17;;;;;;;90.57;33.38;;;-0.40;99.90;;;;;;7341363;32;20107;-60
2023/01/26 03:34:19;;;;;;;84.82;34.15;;;-0.30;99.90;;;;;;7342034;32;20299;-60
2023/01/26 03:38:21;;;;;;;90.80;33.20;;;-0.40;99.90;;;;;;7337053;32;20163;-60
2023/01/26 03:59:44;;;;;;;89.97;34.42;;;-0.30;99.90;;;;;;7340085;32;20548;-60
2023/01/26 04:08:21;;;;;;;94.05;36.22;;;-0.30;99.90;;;;;;7342161;32;20311;-60
2023/01/26 04:12:23;;;;;;;100.75;37.58;;;-0.30;99.90;;;;;;7342043;32;20176;-59
2023/01/26 04:25:07;;;;;;;90.68;33.70;;;-0.20;99.90;;;;;;7344615;32;20211;-61
2023/01/26 04:29:11;;;;;;;102.38;34.75;;;-0.20;99.90;;;;;;7339478;32;20180;-59
2023/01/26 04:33:13;;;;;;;89.95;34.13;;;-0.40;99.90;;;;;;7346778;32;20163;-59
2023/01/26 04:37:15;;;;;;;88.72;32.47;;;-0.30;99.90;;;;;;7343767;32;20225;-59
2023/01/26 04:41:17;;;;;;;106.07;35.13;;;-0.30;99.90;;;;;;7332682;32;20217;-60
2023/01/26 04:45:18;;;;;;;99.18;35.83;;;-0.30;99.90;;;;;;7343005;32;20111;-59
2023/01/26 04:49:20;;;;;;;91.93;34.45;;;-0.50;99.90;;;;;;7334841;32;20353;-60
2023/01/26 04:53:23;;;;;;;94.57;33.85;;;-0.50;99.90;;;;;;7333024;32;20125;-60
2023/01/26 04:57:24;;;;;;;99.60;35.22;;;-0.40;99.90;;;;;;7340858;32;20584;-59
2023/01/26 05:01:26;;;;;;;90.57;32.45;;;-0.30;99.90;;;;;;7340460;32;20096;-61
2023/01/26 05:05:28;;;;;;;92.78;33.85;;;-0.30;99.90;;;;;;7342546;32;20544;-60
2023/01/26 05:09:30;;;;;;;95.25;32.90;;;-0.40;99.90;;;;;;7330369;32;20191;-59
2023/01/26 05:13:32;;;;;;;88.97;32.70;;;-0.30;99.90;;;;;;7330165;32;20162;-59
2023/01/26 05:17:35;;;;;;;96.90;32.35;;;-0.40;99.90;;;;;;7340318;32;20122;-59
2023/01/26 05:21:36;;;;;;;91.95;32.83;;;-0.30;99.90;;;;;;7344747;32;20589;-60
2023/01/26 05:25:38;;;;;;;86.97;31.45;;;-0.40;99.90;;;;;;7340434;32;20096;-60
2023/01/26 05:29:40;;;;;;;90.32;31.80;;;-0.30;99.90;;;;;;7339778;32;20540;-59
2023/01/26 05:33:41;;;;;;;81.40;30.40;;;-0.30;99.90;;;;;;7340165;32;20103;-60
2023/01/26 05:37:44;;;;;;;83.05;30.73;;;-0.30;99.90;;;;;;7337412;32;20775;-64
2023/01/26 05:41:46;;;;;;;88.62;31.40;;;-0.30;99.90;;;;;;7345085;32;20199;-60
2023/01/26 05:45:47;;;;;;;83.90;30.42;;;-0.40;99.90;;;;;;7336017;32;20111;-60
2023/01/26 05:49:49;;;;;;;72.15;29.50;;;-0.30;99.90;;;;;;7339708;32;20130;-60
2023/01/26 05:53:51;;;;;;;81.90;30.17;;;-0.40;99.90;;;;;;7344155;32;20561;-59
2023/01/26 05:57:53;;;;;;;74.28;28.52;;;-0.40;99.90;;;;;;7345886;32;20130;-59
2023/01/26 06:01:56;;;;;;;77.85;28.23;;;-0.30;99.90;;;;;;7339797;32;20540;-62
2023/01/26 06:05:57;;;;;;;81.20;29.30;;;-0.30;99.90;;;;;;7339116;32;20282;-60
2023/01/26 06:09:59;;;;;;;81.97;29.40;;;-0.40;99.90;;;;;;7335158;32;20196;-60
2023/01/26 06:14:01;;;;;;;72.60;27.42;;;-0.30;99.90;;;;;;7324821;32;20324;-59
2023/01/26 06:18:03;;;;;;;76.43;28.00;;;-0.20;99.90;;;;;;7338632;32;20198;-60
2023/01/26 06:22:09;;;;;;;69.87;27.40;;;-0.20;99.90;;;;;;7340959;32;20116;-59
2023/01/26 06:26:11;;;;;;;67.35;26.87;;;-0.20;99.90;;;;;;7342396;32;20544;-60
2023/01/26 06:30:13;;;;;;;64.57;25.98;;;-0.10;99.90;;;;;;7345852;32;20103;-60
2023/01/26 06:34:15;;;;;;;62.72;24.05;;;-0.20;99.90;;;;;;7344812;32;20465;-60
2023/01/26 06:38:16;;;;;;;64.00;25.85;;;-0.20;99.90;;;;;;7338666;32;20158;-60
2023/01/26 06:42:18;;;;;;;65.12;24.75;;;-0.10;99.90;;;;;;7346610;32;20104;-60
2023/01/26 06:46:20;;;;;;;70.55;27.17;;;-0.10;99.90;;;;;;7345076;32;20253;-60
2023/01/26 06:50:25;;;;;;;66.28;27.17;;;-0.20;99.90;;;;;;7339075;32;20265;-60
2023/01/26 06:54:27;;;;;;;72.95;26.85;;;-0.20;99.90;;;;;;7347850;32;20103;-61
2023/01/26 06:58:29;;;;;;;65.82;25.85;;;-0.20;99.90;;;;;;7338101;32;20211;-60
2023/01/26 07:02:30;;;;;;;62.38;27.00;;;-0.10;99.90;;;;;;7332052;32;20351;-59
2023/01/26 07:06:32;;;;;;;71.25;28.40;;;-0.10;99.90;;;;;;7344895;32;20207;-59
2023/01/26 07:10:34;;;;;;;71.97;28.33;;;-0.20;99.90;;;;;;7343047;32;20123;-59
2023/01/26 07:14:36;;;;;;;67.62;27.00;;;-0.20;99.90;;;;;;7350791;32;20106;-60
2023/01/26 07:18:38;;;;;;;71.00;27.75;;;-0.30;99.90;;;;;;7341076;32;20729;-59
2023/01/26 07:22:40;;;;;;;74.80;27.48;;;-0.30;99.90;;;;;;7340392;32;20198;-60
2023/01/26 07:26:42;;;;;;;77.05;28.42;;;-0.20;99.90;;;;;;7344413;32;20456;-61
2023/01/26 07:30:43;;;;;;;70.28;27.40;;;-0.20;99.90;;;;;;7346319;32;20457;-60
2023/01/26 07:34:45;;;;;;;74.43;28.10;;;-0.20;99.90;;;;;;7344052;32;20139;-61
2023/01/26 07:38:47;;;;;;;76.53;27.98;;;-0.20;99.90;;;;;;7337116;32;20194;-61
2023/01/26 07:42:49;;;;;;;69.82;27.62;;;-0.20;99.90;;;;;;7335288;32;20656;-61
2023/01/26 07:46:52;;;;;;;71.68;27.33;;;-0.20;99.90;;;;;;7342922;32;20191;-61
2023/01/26 07:50:56;;;;;;;72.53;27.27;;;-0.10;99.90;;;;;;7340353;32;20358;-62
2023/01/26 07:54:58;;;;;;;70.78;27.60;;;0.00;99.90;;;;;;7344105;32;20103;-61
2023/01/26 07:58:59;;;;;;;75.78;29.42;;;0.10;99.90;;;;;;7348463;32;20248;-61
2023/01/26 08:03:04;;;;;;;74.90;29.17;;;0.20;99.90;;;;;;7335527;32;20191;-59
2023/01/26 08:07:06;;;;;;;75.35;30.23;;;0.10;99.90;;;;;;7344437;32;20145;-60
2023/01/26 08:11:10;;;;;;;78.12;29.12;;;0.00;99.90;;;;;;7335565;32;20222;-60
2023/01/26 08:15:11;;;;;;;82.62;31.33;;;0.10;99.90;;;;;;7345299;32;20115;-60
2023/01/26 08:19:13;;;;;;;80.93;30.83;;;0.10;99.90;;;;;;7343819;32;20181;-60
2023/01/26 08:23:15;;;;;;;73.95;28.52;;;0.10;99.90;;;;;;7338241;32;20221;-60
2023/01/26 08:27:17;;;;;;;76.95;29.25;;;0.20;99.90;;;;;;7333587;32;21554;-60
2023/01/26 08:31:20;;;;;;;83.30;31.77;;;0.10;99.90;;;;;;7337369;32;20338;-61
2023/01/26 08:35:22;;;;;;;85.18;30.98;;;0.00;99.90;;;;;;7333788;32;20175;-59
2023/01/26 08:39:23;;;;;;;81.95;30.65;;;0.10;99.90;;;;;;7326422;32;20104;-61
2023/01/26 08:43:25;;;;;;;90.80;33.30;;;0.20;99.90;;;;;;7338760;32;20237;-62
2023/01/26 08:47:27;;;;;;;82.35;30.20;;;0.10;99.90;;;;;;7333380;32;20221;-60
2023/01/26 08:51:29;;;;;;;89.60;31.50;;;0.20;99.90;;;;;;7339760;32;20174;-62
2023/01/26 08:55:32;;;;;;;81.95;30.55;;;0.20;99.90;;;;;;7338604;32;20122;-60
2023/01/26 08:59:34;;;;;;;81.53;30.85;;;0.20;99.90;;;;;;7342389;32;20103;-61
2023/01/26 09:03:36;;;;;;;76.80;29.20;;;0.20;99.90;;;;;;7331608;32;20489;-63
2023/01/26 09:07:38;;;;;;;79.30;27.67;;;0.30;99.90;;;;;;7327820;32;20183;-61
2023/01/26 09:11:40;;;;;;;81.43;29.40;;;0.50;99.90;;;;;;7331442;32;20163;-61
2023/01/26 09:15:41;;;;;;;75.28;28.33;;;0.40;99.90;;;;;;7332570;32;20198;-61
2023/01/26 09:19:43;;;;;;;75.87;28.05;;;0.40;99.90;;;;;;7334013;32;20127;-61
2023/01/26 09:23:45;;;;;;;72.57;28.40;;;0.50;99.90;;;;;;7337360;32;20134;-62
2023/01/26 09:27:47;;;;;;;70.72;27.75;;;0.50;99.90;;;;;;7326237;32;20131;-63
2023/01/26 09:31:49;;;;;;;72.37;27.85;;;0.60;99.90;;;;;;7336325;32;20320;-62
2023/01/26 09:35:51;;;;;;;77.40;28.12;;;0.50;99.90;;;;;;7341072;32;20115;-61
2023/01/26 09:39:52;;;;;;;68.62;26.50;;;0.60;99.90;;;;;;7343108;32;20115;-60
2023/01/26 09:43:58;;;;;;;72.18;28.05;;;0.60;99.90;;;;;;7334133;32;20207;-61
2023/01/26 09:48:40;;;;;;;73.43;27.40;;;0.60;99.90;;;;;;7349918;32;20767;-61
2023/01/26 09:53:01;;;;;;;77.68;28.95;;;0.50;99.90;;;;;;7338574;32;20103;-61
2023/01/26 09:57:21;;;;;;;78.53;26.67;;;0.40;99.90;;;;;;7342630;32;20743;-61
2023/01/26 10:01:40;;;;;;;74.00;27.37;;;0.40;99.90;;;;;;7334426;32;20099;-61
2023/01/26 10:06:01;;;;;;;74.95;28.12;;;0.50;99.90;;;;;;7341750;32;20116;-61
2023/01/26 10:10:03;;;;;;;75.70;26.27;;;0.50;99.90;;;;;;7341790;32;20290;-61
2023/01/26 10:14:18;;;;;;;67.82;25.67;;;0.70;99.90;;;;;;7340659;32;20133;-60
2023/01/26 10:18:31;;;;;;;64.45;26.17;;;0.80;99.90;;;;;;7339765;32;20191;-61
2023/01/26 10:22:37;;;;;;;58.75;23.95;;;0.90;99.90;;;;;;7336992;32;20176;-60
2023/01/26 10:26:39;;;;;;;59.77;24.13;;;0.90;99.90;;;;;;7345841;32;20594;-60
2023/01/26 10:30:43;;;;;;;65.05;25.50;;;0.90;99.90;;;;;;7335032;32;20339;-61
2023/01/26 10:34:48;;;;;;;62.33;24.27;;;1.00;99.90;;;;;;7345897;32;20189;-61
2023/01/26 10:38:51;;;;;;;63.78;25.88;;;1.00;99.90;;;;;;7340433;32;20487;-60
2023/01/26 10:42:56;;;;;;;58.03;24.02;;;1.00;99.90;;;;;;7336029;32;20130;-63
2023/01/26 10:47:20;;;;;;;59.92;24.35;;;1.00;99.90;;;;;;7336153;32;20185;-61
2023/01/26 10:51:30;;;;;;;56.55;24.52;;;1.00;99.90;;;;;;7332626;32;20442;-60
2023/01/26 10:55:36;;;;;;;59.83;23.48;;;1.10;99.90;;;;;;7334620;32;20099;-59
2023/01/26 10:59:52;;;;;;;55.03;22.35;;;1.20;99.90;;;;;;7342829;32;20113;-61
2023/01/26 11:04:05;;;;;;;54.70;23.77;;;1.20;99.90;;;;;;7342353;32;20186;-59
2023/01/26 11:08:35;;;;;;;54.10;22.48;;;1.30;99.90;;;;;;7339455;32;20547;-59
2023/01/26 11:12:36;;;;;;;51.15;21.35;;;1.20;99.90;;;;;;7334457;32;20737;-59
2023/01/26 11:16:43;;;;;;;48.75;21.40;;;1.30;99.90;;;;;;7340570;32;20583;-59
2023/01/26 11:21:02;;;;;;;47.25;21.25;;;1.30;99.90;;;;;;7341139;32;20111;-60
2023/01/26 11:25:13;;;;;;;43.83;20.30;;;1.40;99.90;;;;;;7338632;32;20516;-59
2023/01/26 11:29:53;;;;;;;42.97;20.17;;;1.50;99.90;;;;;;7340259;32;20107;-59
2023/01/26 11:34:21;;;;;;;39.33;18.80;;;1.50;99.90;;;;;;7341704;32;20525;-59
2023/01/26 11:38:40;;;;;;;38.83;18.75;;;1.60;99.90;;;;;;7339371;32;20107;-59
2023/01/26 11:43:25;;;;;;;38.88;18.65;;;1.60;99.90;;;;;;7335523;32;20597;-61
2023/01/26 11:47:39;;;;;;;37.75;17.98;;;1.70;99.90;;;;;;7333911;32;20205;-61
2023/01/26 11:52:19;;;;;;;35.97;17.10;;;1.70;99.90;;;;;;7334039;32;20125;-61
2023/01/26 11:56:36;;;;;;;29.70;15.32;;;1.60;99.90;;;;;;7340275;32;20718;-60
2023/01/26 12:00:42;;;;;;;31.48;15.55;;;1.50;99.90;;;;;;7339777;32;20095;-61
2023/01/26 12:04:45;;;;;;;26.27;14.25;;;1.50;99.90;;;;;;7327627;32;20630;-61
2023/01/26 12:09:17;;;;;;;31.62;14.77;;;1.60;99.90;;;;;;7339016;32;20108;-60
2023/01/26 12:13:22;;;;;;;29.45;15.40;;;1.60;99.90;;;;;;7313020;32;20229;-61
2023/01/26 12:17:46;;;;;;;27.15;14.00;;;1.60;99.90;;;;;;7344929;32;20565;-61
2023/01/26 12:21:50;;;;;;;27.25;13.23;;;1.70;99.90;;;;;;7339052;32;20099;-60
2023/01/26 12:25:59;;;;;;;28.38;13.93;;;1.70;99.90;;;;;;7336715;32;20554;-61
2023/01/26 12:30:32;;;;;;;28.75;14.15;;;1.60;99.90;;;;;;7343386;32;20112;-61
2023/01/26 12:34:34;;;;;;;27.70;13.85;;;1.60;99.90;;;;;;7345933;32;20273;-61
2023/01/26 12:38:36;;;;;;;27.52;13.02;;;1.70;99.90;;;;;;7337002;32;20250;-60
2023/01/26 12:42:53;;;;;;;24.55;12.98;;;1.70;99.90;;;;;;7331088;32;20204;-61
2023/01/26 12:47:27;;;;;;;22.08;11.85;;;1.80;99.90;;;;;;7341448;32;20107;-61
2023/01/26 12:51:34;;;;;;;19.02;10.13;;;2.00;99.90;;;;;;7310079;32;20615;-61
2023/01/26 12:55:41;;;;;;;;;;;1.90;99.90;;;;;;7340104;32;20194;-63
2023/01/26 12:59:43;;;;;;;21.10;9.50;;;1.90;99.90;;;;;;7341998;32;20306;-60
2023/01/26 13:04:06;;;;;;;19.00;9.10;;;2.00;99.90;;;;;;7332259;32;20175;-61
2023/01/26 13:08:30;;;;;;;20.35;8.65;;;2.00;99.90;;;;;;7339905;32;20873;-61
2023/01/26 13:12:43;;;;;;;18.90;9.57;;;2.00;99.90;;;;;;7340628;32;20133;-61
2023/01/26 13:16:45;;;;;;;13.88;8.25;;;1.80;99.90;;;;;;7344880;32;20099;-61
2023/01/26 13:20:48;;;;;;;15.82;9.07;;;1.70;99.90;;;;;;7348123;32;20509;-61
2023/01/26 13:24:56;;;;;;;17.25;9.23;;;1.70;99.90;;;;;;7345852;32;20103;-62
2023/01/26 13:29:32;;;;;;;16.92;9.30;;;1.80;99.90;;;;;;7348785;32;20117;-62
2023/01/26 13:33:34;;;;;;;17.80;9.68;;;1.70;99.90;;;;;;7346510;32;20257;-61
2023/01/26 13:37:45;;;;;;;16.70;9.70;;;1.70;99.90;;;;;;7342589;32;20142;-62
2023/01/26 13:41:47;;;;;;;16.12;8.85;;;1.70;99.90;;;;;;7341391;32;20095;-61
2023/01/26 13:45:52;;;;;;;17.12;8.40;;;1.80;99.90;;;;;;7344332;32;20295;-62
2023/01/26 13:49:53;;;;;;;16.20;8.82;;;1.80;99.90;;;;;;7348315;32;20125;-59
2023/01/26 13:54:10;;;;;;;16.83;8.98;;;1.70;99.90;;;;;;7336892;32;20130;-60
2023/01/26 13:58:14;;;;;;;20.40;9.90;;;1.60;99.90;;;;;;7338432;32;20337;-60
2023/01/26 14:02:30;;;;;;;15.68;9.02;;;1.60;99.90;;;;;;7339930;32;20104;-61
2023/01/26 14:06:35;;;;;;;20.37;10.18;;;1.60;99.90;;;;;;7338760;32;20111;-59
2023/01/26 14:10:41;;;;;;;18.67;9.82;;;1.60;99.90;;;;;;7336127;32;20187;-59
2023/01/26 14:14:47;;;;;;;20.88;11.40;;;1.60;99.90;;;;;;7346203;32;20149;-59
2023/01/26 14:18:49;;;;;;;27.55;11.45;;;1.70;99.90;;;;;;7341999;32;20122;-61
2023/01/26 14:23:14;;;;;;;30.40;13.10;;;1.60;99.90;;;;;;7343105;32;20180;-60
2023/01/26 14:27:35;;;;;;;28.90;13.50;;;1.60;99.90;;;;;;7335216;32;20145;-61
2023/01/26 14:31:37;;;;;;;35.22;15.15;;;1.60;99.90;;;;;;7337610;32;20100;-61
2023/01/26 14:35:41;;;;;;;39.30;16.02;;;1.60;99.90;;;;;;7338407;32;20335;-60
2023/01/26 14:39:44;;;;;;;44.05;17.15;;;1.70;99.90;;;;;;7334043;32;20099;-62
2023/01/26 14:43:48;;;;;;;40.28;16.98;;;1.70;99.90;;;;;;7339465;32;20404;-61
2023/01/26 14:47:51;;;;;;;40.45;16.10;;;1.70;99.90;;;;;;7342483;32;20172;-60
2023/01/26 14:51:56;;;;;;;40.78;16.65;;;1.90;99.90;;;;;;7336629;32;20099;-64
2023/01/26 14:55:58;;;;;;;48.05;17.52;;;1.80;99.90;;;;;;7324337;32;20100;-63
2023/01/26 15:00:05;;;;;;;45.65;18.60;;;1.80;99.90;;;;;;7336787;32;20165;-63
2023/01/26 15:04:20;;;;;;;;;;;1.90;99.90;;;;;;7337244;32;20275;-62
2023/01/26 15:08:23;;;;;;;58.53;19.65;;;2.00;99.90;;;;;;7336197;32;20023;-61
2023/01/26 15:12:25;;;;;;;59.63;21.50;;;1.90;99.90;;;;;;7336881;32;20604;-61
2023/01/26 15:16:27;;;;;;;61.05;21.70;;;1.90;99.90;;;;;;7324102;32;20218;-62
2023/01/26 15:20:28;;;;;;;55.17;21.65;;;1.90;99.90;;;;;;7325686;32;20111;-63
2023/01/26 15:24:30;;;;;;;63.50;21.75;;;2.00;99.90;;;;;;7342239;32;20222;-62
2023/01/26 15:28:32;;;;;;;64.30;23.73;;;2.00;99.90;;;;;;7337181;32;20119;-62
2023/01/26 15:32:38;;;;;;;66.00;23.35;;;2.00;99.90;;;;;;7334235;32;20189;-62
2023/01/26 15:36:50;;;;;;;57.92;22.45;;;2.10;99.90;;;;;;7341823;32;20183;-62
2023/01/26 15:40:51;;;;;;;66.25;22.95;;;2.10;99.90;;;;;;7337641;32;20196;-62
2023/01/26 15:44:53;;;;;;;62.10;20.95;;;2.20;99.90;;;;;;7347514;32;20111;-62
2023/01/26 15:48:55;;;;;;;60.53;22.55;;;2.20;99.90;;;;;;7339994;32;20153;-62
2023/01/26 15:52:57;;;;;;;68.07;22.20;;;2.30;99.90;;;;;;7338901;32;20167;-62
2023/01/26 15:56:58;;;;;;;68.37;23.83;;;2.30;99.90;;;;;;7344258;32;20102;-61
2023/01/26 16:01:00;;;;;;;60.22;22.05;;;2.40;99.90;;;;;;7336941;32;20175;-62
2023/01/26 16:05:02;;;;;;;69.47;23.92;;;2.40;99.90;;;;;;7336198;32;20175;-61
2023/01/26 16:09:04;;;;;;;76.03;22.95;;;2.40;99.90;;;;;;7338298;32;20487;-59
2023/01/26 16:13:17;;;;;;;73.75;22.40;;;2.40;99.90;;;;;;7339537;32;20175;-61
2023/01/26 16:17:19;;;;;;;69.20;23.75;;;2.40;99.90;;;;;;7338979;32;20227;-60
2023/01/26 16:21:23;;;;;;;79.28;25.30;;;2.30;99.90;;;;;;7339300;32;20199;-61
2023/01/26 16:25:28;;;;;;;95.60;29.90;;;2.20;99.90;;;;;;7337328;32;20148;-60
2023/01/26 16:29:30;;;;;;;70.05;23.73;;;2.20;99.90;;;;;;7340987;32;20112;-59
2023/01/26 16:33:32;;;;;;;91.75;27.75;;;2.20;99.90;;;;;;7345792;32;20554;-60
2023/01/26 16:37:34;;;;;;;81.10;24.98;;;2.20;99.90;;;;;;7338529;32;20112;-60
2023/01/26 16:41:35;;;;;;;88.07;24.67;;;2.20;99.90;;;;;;7343082;32;20244;-60
2023/01/26 16:45:37;;;;;;;88.95;24.33;;;2.20;99.90;;;;;;7351673;32;20126;-61
2023/01/26 16:49:39;;;;;;;80.30;25.45;;;2.20;99.90;;;;;;7353690;32;20588;-61
2023/01/26 16:53:41;;;;;;;84.78;25.25;;;2.20;99.90;;;;;;7347160;32;20222;-61
2023/01/26 16:57:44;;;;;;;88.45;26.83;;;2.30;99.90;;;;;;7346894;32;20214;-61
2023/01/26 17:01:46;;;;;;;96.57;27.37;;;2.30;99.90;;;;;;7342775;32;20209;-60
2023/01/26 17:05:49;;;;;;;99.13;27.85;;;2.30;99.90;;;;;;7343460;32;20116;-60
2023/01/26 17:09:51;;;;;;;80.85;25.92;;;2.30;99.90;;;;;;7345359;32;20238;-59
2023/01/26 17:13:54;;;;;;;93.25;24.58;;;2.40;99.90;;;;;;7343488;32;20212;-59
2023/01/26 17:17:56;;;;;;;101.50;27.15;;;2.40;99.90;;;;;;7348583;32;20103;-59
2023/01/26 17:21:58;;;;;;;99.97;30.12;;;2.50;99.90;;;;;;7342902;32;20130;-59
2023/01/26 17:26:00;;;;;;;104.15;28.75;;;2.50;99.90;;;;;;7340557;32;20448;-59
2023/01/26 17:30:03;;;;;;;98.68;26.45;;;2.50;99.90;;;;;;7343134;32;20111;-59
2023/01/26 17:34:05;;;;;;;93.55;25.77;;;2.50;99.90;;;;;;7341330;32;20527;-59
2023/01/26 17:38:07;;;;;;;107.75;25.48;;;2.50;99.90;;;;;;7341254;32;20115;-59
2023/01/26 17:42:08;;;;;;;106.72;31.20;;;2.40;99.90;;;;;;7345542;32;20555;-60
2023/01/26 17:46:19;;;;;;;82.75;25.42;;;2.40;99.90;;;;;;7345459;32;20099;-60
2023/01/26 17:50:21;;;;;;;101.25;29.08;;;2.40;99.90;;;;;;7329439;32;20126;-59
2023/01/26 17:54:23;;;;;;;95.38;27.98;;;2.40;99.90;;;;;;7348282;32;20545;-59
2023/01/26 17:58:24;;;;;;;114.32;29.35;;;2.30;99.90;;;;;;7345055;32;20189;-59
2023/01/26 18:02:26;;;;;;;89.82;30.00;;;2.20;99.90;;;;;;7346874;32;20107;-59
2023/01/26 18:06:28;;;;;;;100.35;31.45;;;2.30;99.90;;;;;;7333246;32;20951;-59
2023/01/26 18:10:30;;;;;;;91.45;28.52;;;2.30;99.90;;;;;;7337116;32;20129;-59
2023/01/26 18:14:32;;;;;;;87.07;26.58;;;2.40;99.90;;;;;;7346381;32;20131;-59
2023/01/26 18:18:34;;;;;;;88.22;24.77;;;2.40;99.90;;;;;;7344093;32;20218;-61
2023/01/26 18:22:36;;;;;;;88.93;24.48;;;2.30;99.90;;;;;;7345174;32;20166;-60
2023/01/26 18:26:38;;;;;;;82.82;24.05;;;2.50;99.90;;;;;;7343248;32;20127;-62
2023/01/26 18:30:40;;;;;;;78.65;23.65;;;2.50;99.90;;;;;;7335103;32;20323;-59
2023/01/26 18:34:42;;;;;;;74.43;22.95;;;2.40;99.90;;;;;;7345386;32;20158;-59
2023/01/26 18:38:57;;;;;;;74.40;23.52;;;2.50;99.90;;;;;;7329542;32;20274;-59
2023/01/26 18:42:59;;;;;;;71.07;23.33;;;2.50;99.90;;;;;;7344733;32;20148;-59
2023/01/26 18:47:01;;;;;;;65.85;23.65;;;2.60;99.90;;;;;;7338540;32;20489;-59
2023/01/26 18:51:03;;;;;;;68.87;25.08;;;2.50;99.90;;;;;;7332092;32;20541;-61
2023/01/26 18:55:07;;;;;;;64.37;22.67;;;2.60;99.90;;;;;;7344933;32;20167;-61
2023/01/26 18:59:09;;;;;;;74.18;23.55;;;2.60;99.90;;;;;;7329269;32;20450;-59
2023/01/26 19:03:11;;;;;;;72.35;23.70;;;2.60;99.90;;;;;;7343218;32;20282;-58
2023/01/26 19:07:14;;;;;;;84.07;23.35;;;2.60;99.90;;;;;;7332361;32;20102;-60
2023/01/26 19:11:15;;;;;;;90.72;30.02;;;2.50;99.90;;;;;;7332733;32;20156;-59
2023/01/26 19:15:17;;;;;;;83.78;28.35;;;2.50;99.90;;;;;;7339179;32;20222;-60
2023/01/26 19:19:19;;;;;;;79.68;27.95;;;2.50;99.90;;;;;;7333757;32;20542;-59
2023/01/26 19:23:21;;;;;;;85.57;27.25;;;2.60;99.90;;;;;;7346243;32;20261;-59
2023/01/26 19:27:23;;;;;;;100.47;30.45;;;2.60;99.90;;;;;;7324544;32;20561;-59
2023/01/26 19:31:25;;;;;;;93.22;27.52;;;2.60;99.90;;;;;;7338940;32;20502;-59
2023/01/26 19:35:28;;;;;;;89.62;28.65;;;2.60;99.90;;;;;;7339268;32;20204;-59
2023/01/26 19:39:30;;;;;;;80.95;28.20;;;2.70;99.90;;;;;;7339918;32;20132;-59
2023/01/26 19:43:31;;;;;;;100.40;29.08;;;2.70;99.90;;;;;;7339289;32;20468;-61
2023/01/26 19:47:33;;;;;;;76.45;25.65;;;2.70;99.90;;;;;;7336068;32;20107;-61
2023/01/26 19:51:35;;;;;;;82.50;23.15;;;2.70;99.90;;;;;;7332384;32;20476;-62
2023/01/26 19:55:37;;;;;;;76.07;23.08;;;2.60;99.90;;;;;;7337731;32;20121;-61
2023/01/26 19:59:38;;;;;;;81.82;26.08;;;2.60;99.90;;;;;;7343604;32;20186;-60
2023/01/26 20:03:40;;;;;;;125.03;35.78;;;2.60;99.90;;;;;;7343003;32;20121;-59
2023/01/26 20:07:42;;;;;;;83.15;26.73;;;2.70;99.90;;;;;;7343469;32;20147;-59
2023/01/26 20:11:44;;;;;;;85.05;27.55;;;2.60;99.90;;;;;;7338752;32;20130;-60
2023/01/26 20:15:45;;;;;;;91.22;27.95;;;2.70;99.90;;;;;;7336995;32;20187;-60
2023/01/26 20:19:47;;;;;;;113.15;28.08;;;2.70;99.90;;;;;;7327055;32;20096;-60
2023/01/26 20:23:49;;;;;;;80.65;23.95;;;2.70;99.90;;;;;;7340476;32;20122;-63
2023/01/26 20:27:56;;;;;;;67.82;22.37;;;2.60;99.90;;;;;;7342610;32;20111;-62
2023/01/26 20:31:57;;;;;;;76.60;23.17;;;2.70;99.90;;;;;;7339271;32;20130;-60
2023/01/26 20:36:00;;;;;;;77.22;24.30;;;2.70;99.90;;;;;;7339631;32;20193;-59
2023/01/26 20:40:02;;;;;;;62.95;21.23;;;2.70;99.90;;;;;;7340312;32;20317;-60
2023/01/26 20:44:06;;;;;;;77.68;23.15;;;2.70;99.90;;;;;;7340010;32;20251;-60
2023/01/26 20:48:07;;;;;;;85.47;27.23;;;2.70;99.90;;;;;;7345267;32;20112;-60
2023/01/26 20:52:09;;;;;;;71.53;25.75;;;2.70;99.90;;;;;;7342170;32;20115;-60
2023/01/26 20:56:12;;;;;;;72.30;25.88;;;2.60;99.90;;;;;;7341912;32;20746;-60
2023/01/26 21:00:15;;;;;;;72.70;22.83;;;2.70;99.90;;;;;;7345844;32;20245;-61
2023/01/26 21:04:16;;;;;;;69.25;22.70;;;2.60;99.90;;;;;;7345543;32;20568;-60
2023/01/26 21:08:18;;;;;;;59.63;20.98;;;2.70;99.90;;;;;;7340011;32;20253;-60
2023/01/26 21:12:20;;;;;;;62.60;22.83;;;2.70;99.90;;;;;;7340664;32;20183;-60
2023/01/26 21:16:22;;;;;;;61.92;21.83;;;2.60;99.90;;;;;;7337566;32;20498;-60
2023/01/26 21:20:23;;;;;;;59.35;20.42;;;2.60;99.90;;;;;;7337778;32;20542;-59
2023/01/26 21:24:25;;;;;;;62.85;20.73;;;2.70;99.90;;;;;;7336362;32;20100;-62
2023/01/26 21:28:28;;;;;;;57.30;18.87;;;2.70;99.90;;;;;;7341443;32;20517;-62
2023/01/26 21:32:29;;;;;;;55.10;19.08;;;2.60;99.90;;;;;;7345791;32;20171;-61
2023/01/26 21:36:32;;;;;;;65.22;18.77;;;2.60;99.90;;;;;;7351679;32;20120;-61
2023/01/26 21:40:34;;;;;;;62.47;19.05;;;2.60;99.90;;;;;;7347708;32;20150;-61